createdAt,value
2023-02-17T00:00:14.557Z,19.92
2023-02-17T00:01:24.797Z,14.27
2023-02-17T00:02:26.744Z,14.65
2023-02-17T00:03:28.875Z,15.80
2023-02-17T00:04:33.066Z,18.35
2023-02-17T00:05:35.003Z,19.50
2023-02-17T00:06:37.004Z,15.70
2023-02-17T00:07:39.586Z,15.85
2023-02-17T00:08:41.640Z,18.30
2023-02-17T00:09:43.742Z,18.73
2023-02-17T00:10:45.689Z,17.00
2023-02-17T00:11:47.585Z,18.48
2023-02-17T00:12:49.574Z,19.65
2023-02-17T00:13:53.969Z,14.68
2023-02-17T00:14:57.987Z,16.63
2023-02-17T00:16:00.303Z,17.75
2023-02-17T00:17:02.289Z,17.65
2023-02-17T00:18:04.590Z,20.42
2023-02-17T00:19:25.028Z,19.58
2023-02-17T00:20:29.638Z,20.13
2023-02-17T00:22:34.299Z,19.50
2023-02-17T00:23:36.290Z,16.33
2023-02-17T00:24:40.229Z,19.48
2023-02-17T00:25:42.243Z,17.83
2023-02-17T00:26:44.692Z,18.48
2023-02-17T00:27:46.681Z,14.20
2023-02-17T00:28:49.516Z,20.60
2023-02-17T00:29:51.593Z,15.38
2023-02-17T00:30:53.589Z,20.02
2023-02-17T00:31:56.609Z,16.33
2023-02-17T00:32:59.343Z,20.73
2023-02-17T00:34:01.415Z,20.02
2023-02-17T00:35:03.636Z,15.32
2023-02-17T00:36:07.386Z,19.00
2023-02-17T00:37:09.480Z,15.95
2023-02-17T00:38:11.443Z,16.98
2023-02-17T00:39:16.952Z,16.23
2023-02-17T00:40:19.141Z,16.25
2023-02-17T00:41:21.552Z,16.48
2023-02-17T00:42:23.610Z,18.88
2023-02-17T00:43:25.781Z,21.13
2023-02-17T00:44:27.916Z,18.88
2023-02-17T00:45:29.892Z,17.75
2023-02-17T00:46:32.035Z,15.95
2023-02-17T00:47:34.153Z,16.95
2023-02-17T00:48:36.346Z,18.65
2023-02-17T00:49:38.388Z,14.73
2023-02-17T00:50:40.433Z,15.43
2023-02-17T00:51:42.526Z,15.15
2023-02-17T00:52:44.789Z,14.30
2023-02-17T00:53:47.308Z,13.73
2023-02-17T00:54:49.483Z,15.27
2023-02-17T00:55:51.715Z,15.57
2023-02-17T00:56:53.919Z,15.98
2023-02-17T00:57:56.037Z,15.70
2023-02-17T00:58:58.016Z,13.52
2023-02-17T01:00:00.039Z,13.02
2023-02-17T01:01:02.259Z,13.75
2023-02-17T01:02:04.475Z,13.68
2023-02-17T01:03:06.622Z,13.25
2023-02-17T01:04:08.809Z,14.88
2023-02-17T01:05:10.888Z,16.15
2023-02-17T01:06:51.151Z,16.95
2023-02-17T01:07:53.288Z,14.35
2023-02-17T01:08:55.783Z,14.52
2023-02-17T01:09:57.794Z,12.15
2023-02-17T01:10:59.684Z,14.35
2023-02-17T01:12:01.632Z,13.45
2023-02-17T01:13:03.766Z,15.27
2023-02-17T01:14:06.780Z,16.27
2023-02-17T01:15:09.024Z,17.17
2023-02-17T01:16:23.229Z,14.43
2023-02-17T01:17:25.282Z,15.88
2023-02-17T01:18:27.380Z,15.20
2023-02-17T01:19:29.660Z,14.63
2023-02-17T01:20:35.089Z,15.13
2023-02-17T01:21:37.107Z,16.42
2023-02-17T01:22:40.085Z,16.33
2023-02-17T01:23:42.143Z,17.75
2023-02-17T01:24:44.277Z,20.02
2023-02-17T01:25:47.772Z,16.23
2023-02-17T01:26:49.818Z,14.40
2023-02-17T01:27:51.983Z,16.75
2023-02-17T01:28:55.040Z,12.60
2023-02-17T01:29:57.186Z,11.75
2023-02-17T01:30:59.474Z,18.17
2023-02-17T01:32:01.564Z,14.30
2023-02-17T01:33:03.613Z,15.95
2023-02-17T01:34:05.785Z,18.15
2023-02-17T01:35:08.135Z,13.43
2023-02-17T01:36:12.708Z,19.27
2023-02-17T01:37:15.409Z,20.15
2023-02-17T01:38:17.355Z,13.38
2023-02-17T01:39:19.288Z,13.60
2023-02-17T01:40:21.370Z,16.05
2023-02-17T01:41:29.239Z,16.77
2023-02-17T01:42:31.426Z,17.08
2023-02-17T01:43:33.679Z,18.65
2023-02-17T01:44:35.601Z,19.75
2023-02-17T01:45:47.292Z,22.60
2023-02-17T01:46:54.952Z,21.77
2023-02-17T01:48:11.740Z,21.45
2023-02-17T01:49:36.140Z,14.35
2023-02-17T01:50:44.340Z,20.35
2023-02-17T01:51:50.007Z,16.70
2023-02-17T01:52:55.110Z,17.77
2023-02-17T01:54:05.601Z,18.70
2023-02-17T01:55:13.893Z,21.35
2023-02-17T01:56:17.645Z,24.15
2023-02-17T01:57:23.849Z,14.50
2023-02-17T01:58:28.406Z,19.95
2023-02-17T01:59:31.170Z,18.70
2023-02-17T02:00:34.318Z,23.45
2023-02-17T02:01:36.854Z,22.30
2023-02-17T02:02:42.257Z,19.38
2023-02-17T02:03:44.758Z,20.13
2023-02-17T02:04:51.532Z,17.67
2023-02-17T02:05:53.662Z,20.15
2023-02-17T02:06:56.088Z,16.85
2023-02-17T02:07:58.366Z,18.45
2023-02-17T02:09:04.360Z,15.20
2023-02-17T02:10:07.388Z,18.75
2023-02-17T02:11:09.348Z,15.98
2023-02-17T02:12:24.512Z,22.15
2023-02-17T02:13:26.480Z,21.25
2023-02-17T02:14:49.945Z,13.50
2023-02-17T02:16:14.396Z,19.50
2023-02-17T02:17:48.590Z,19.98
2023-02-17T02:19:12.401Z,16.13
2023-02-17T02:20:32.955Z,17.20
2023-02-17T02:21:49.775Z,21.13
2023-02-17T02:23:03.799Z,16.90
2023-02-17T02:24:24.208Z,14.45
2023-02-17T02:25:58.100Z,15.27
2023-02-17T02:27:12.110Z,20.95
2023-02-17T02:28:14.159Z,18.23
2023-02-17T02:29:27.921Z,16.23
2023-02-17T02:30:39.040Z,17.73
2023-02-17T02:32:18.442Z,16.65
2023-02-17T02:33:38.010Z,20.35
2023-02-17T02:34:48.223Z,29.38
2023-02-17T02:36:12.314Z,16.50
2023-02-17T02:37:37.118Z,18.33
2023-02-17T02:38:53.320Z,14.70
2023-02-17T02:39:56.792Z,18.02
2023-02-17T02:41:11.817Z,20.08
2023-02-17T02:42:18.901Z,18.48
2023-02-17T02:43:22.581Z,14.52
2023-02-17T02:44:25.521Z,18.17
2023-02-17T02:45:27.556Z,17.30
2023-02-17T02:46:29.600Z,18.05
2023-02-17T02:47:54.060Z,17.38
2023-02-17T02:48:56.092Z,17.50
2023-02-17T02:49:58.396Z,16.27
2023-02-17T02:51:12.437Z,19.23
2023-02-17T02:52:17.472Z,21.25
2023-02-17T02:53:57.774Z,18.70
2023-02-17T02:55:11.176Z,17.60
2023-02-17T02:56:52.847Z,20.67
2023-02-17T02:58:07.958Z,15.15
2023-02-17T02:59:18.984Z,17.70
2023-02-17T03:00:41.771Z,19.80
2023-02-17T03:01:43.630Z,20.00
2023-02-17T03:03:21.710Z,16.73
2023-02-17T03:04:37.129Z,20.90
2023-02-17T03:05:47.909Z,16.92
2023-02-17T03:06:57.223Z,17.13
2023-02-17T03:08:20.060Z,21.65
2023-02-17T03:09:26.359Z,16.45
2023-02-17T03:10:28.663Z,17.55
2023-02-17T03:11:33.839Z,19.08
2023-02-17T03:12:38.360Z,21.65
2023-02-17T03:13:41.504Z,17.27
2023-02-17T03:14:43.920Z,16.17
2023-02-17T03:15:47.003Z,20.58
2023-02-17T03:16:50.876Z,19.40
2023-02-17T03:17:52.908Z,14.40
2023-02-17T03:18:54.911Z,16.95
2023-02-17T03:19:56.976Z,23.50
2023-02-17T03:21:06.211Z,18.92
2023-02-17T03:22:14.062Z,13.73
2023-02-17T03:23:16.312Z,21.38
2023-02-17T03:24:19.696Z,15.93
2023-02-17T03:25:21.942Z,18.15
2023-02-17T03:26:24.055Z,20.38
2023-02-17T03:27:26.037Z,20.33
2023-02-17T03:28:28.057Z,20.38
2023-02-17T03:29:30.200Z,17.75
2023-02-17T03:30:32.330Z,18.00
2023-02-17T03:31:34.838Z,20.63
2023-02-17T03:32:37.399Z,17.05
2023-02-17T03:33:39.410Z,22.75
2023-02-17T03:34:41.555Z,19.48
2023-02-17T03:35:43.594Z,18.52
2023-02-17T03:36:45.542Z,17.58
2023-02-17T03:37:47.479Z,24.35
2023-02-17T03:38:49.676Z,19.45
2023-02-17T03:39:51.744Z,22.42
2023-02-17T03:40:53.970Z,18.67
2023-02-17T03:41:56.052Z,20.58
2023-02-17T03:42:58.137Z,18.70
2023-02-17T03:44:00.267Z,21.05
2023-02-17T03:45:02.639Z,17.15
2023-02-17T03:46:05.827Z,18.23
2023-02-17T03:47:08.374Z,18.92
2023-02-17T03:48:10.431Z,18.58
2023-02-17T03:49:13.059Z,21.75
2023-02-17T03:50:15.058Z,18.80
2023-02-17T03:51:22.080Z,21.58
2023-02-17T03:52:24.180Z,18.60
2023-02-17T03:53:26.300Z,20.05
2023-02-17T03:54:28.647Z,19.65
2023-02-17T03:55:30.871Z,19.30
2023-02-17T03:56:32.911Z,21.42
2023-02-17T03:57:35.043Z,21.17
2023-02-17T03:58:37.445Z,27.15
2023-02-17T03:59:39.520Z,20.10
2023-02-17T04:00:41.404Z,18.17
2023-02-17T04:01:43.450Z,21.65
2023-02-17T04:02:45.383Z,19.05
2023-02-17T04:03:47.467Z,20.95
2023-02-17T04:04:49.804Z,21.52
2023-02-17T04:05:52.262Z,19.02
2023-02-17T04:06:54.426Z,20.58
2023-02-17T04:07:56.333Z,23.95
2023-02-17T04:08:58.338Z,19.95
2023-02-17T04:10:00.374Z,18.25
2023-02-17T04:11:04.125Z,20.92
2023-02-17T04:12:06.148Z,21.08
2023-02-17T04:13:08.090Z,20.35
2023-02-17T04:14:10.077Z,16.45
2023-02-17T04:15:12.244Z,17.13
2023-02-17T04:16:14.751Z,19.10
2023-02-17T04:17:16.785Z,18.77
2023-02-17T04:18:19.915Z,19.98
2023-02-17T04:19:21.922Z,16.52
2023-02-17T04:20:23.963Z,18.13
2023-02-17T04:21:26.587Z,17.20
2023-02-17T04:22:28.671Z,20.08
2023-02-17T04:23:30.681Z,18.30
2023-02-17T04:24:32.637Z,19.27
2023-02-17T04:25:36.241Z,15.63
2023-02-17T04:26:38.307Z,25.08
2023-02-17T04:27:40.588Z,17.02
2023-02-17T04:28:42.978Z,19.23
2023-02-17T04:29:44.969Z,20.52
2023-02-17T04:30:49.613Z,16.90
2023-02-17T04:31:51.977Z,17.00
2023-02-17T04:32:53.963Z,17.65
2023-02-17T04:33:56.089Z,18.33
2023-02-17T04:34:57.977Z,15.10
2023-02-17T04:36:00.588Z,22.33
2023-02-17T04:37:02.584Z,18.83
2023-02-17T04:38:05.765Z,16.02
2023-02-17T04:39:07.766Z,20.83
2023-02-17T04:40:10.618Z,17.80
2023-02-17T04:41:12.604Z,16.95
2023-02-17T04:42:14.702Z,17.73
2023-02-17T04:43:16.780Z,17.15
2023-02-17T04:44:19.261Z,15.88
2023-02-17T04:45:21.246Z,15.00
2023-02-17T04:46:23.326Z,14.45
2023-02-17T04:47:25.364Z,14.90
2023-02-17T04:48:27.334Z,17.52
2023-02-17T04:49:29.312Z,15.55
2023-02-17T04:50:31.256Z,18.48
2023-02-17T04:51:33.184Z,17.23
2023-02-17T04:52:35.849Z,15.52
2023-02-17T04:53:38.062Z,17.85
2023-02-17T04:54:40.101Z,22.00
2023-02-17T04:55:42.900Z,18.55
2023-02-17T04:56:44.884Z,24.13
2023-02-17T04:57:47.109Z,21.23
2023-02-17T04:58:49.221Z,14.85
2023-02-17T04:59:51.248Z,18.55
2023-02-17T05:00:53.150Z,19.52
2023-02-17T05:01:55.207Z,17.25
2023-02-17T05:02:57.310Z,19.10
2023-02-17T05:03:59.265Z,17.05
2023-02-17T05:05:01.555Z,21.75
2023-02-17T05:06:03.913Z,15.38
2023-02-17T05:07:06.038Z,18.77
2023-02-17T05:08:08.714Z,19.92
2023-02-17T05:09:10.825Z,16.30
2023-02-17T05:10:15.956Z,16.20
2023-02-17T05:11:17.870Z,16.40
2023-02-17T05:12:20.059Z,16.85
2023-02-17T05:13:22.047Z,18.13
2023-02-17T05:14:24.098Z,18.50
2023-02-17T05:15:26.163Z,16.45
2023-02-17T05:16:28.431Z,14.85
2023-02-17T05:17:30.611Z,15.77
2023-02-17T05:18:32.625Z,15.90
2023-02-17T05:19:34.650Z,15.27
2023-02-17T05:20:36.716Z,15.45
2023-02-17T05:21:38.863Z,14.50
2023-02-17T05:22:40.888Z,17.88
2023-02-17T05:23:42.987Z,13.98
2023-02-17T05:24:44.904Z,21.67
2023-02-17T05:25:46.858Z,19.73
2023-02-17T05:26:48.825Z,14.23
2023-02-17T05:27:51.093Z,15.00
2023-02-17T05:28:53.034Z,18.08
2023-02-17T05:29:55.098Z,15.80
2023-02-17T05:30:57.092Z,12.85
2023-02-17T05:31:59.297Z,16.10
2023-02-17T05:33:01.433Z,13.02
2023-02-17T05:34:03.854Z,13.52
2023-02-17T05:35:06.252Z,16.17
2023-02-17T05:36:10.912Z,14.32
2023-02-17T05:37:12.871Z,18.02
2023-02-17T05:38:15.052Z,14.73
2023-02-17T05:39:17.029Z,17.58
2023-02-17T05:40:19.243Z,16.83
2023-02-17T05:41:21.381Z,13.10
2023-02-17T05:42:23.429Z,14.93
2023-02-17T05:43:25.496Z,13.48
2023-02-17T05:44:27.776Z,13.60
2023-02-17T05:45:29.798Z,13.05
2023-02-17T05:46:31.963Z,16.95
2023-02-17T05:47:35.648Z,14.43
2023-02-17T05:48:38.113Z,12.68
2023-02-17T05:49:40.086Z,20.17
2023-02-17T05:50:42.327Z,12.48
2023-02-17T05:51:44.329Z,14.27
2023-02-17T05:52:46.282Z,13.93
2023-02-17T05:53:48.426Z,15.02
2023-02-17T05:54:50.397Z,16.13
2023-02-17T05:55:52.580Z,17.00
2023-02-17T05:56:54.557Z,12.18
2023-02-17T05:57:56.593Z,17.02
2023-02-17T05:59:00.751Z,17.10
2023-02-17T06:00:05.317Z,12.30
2023-02-17T06:02:12.857Z,13.20
2023-02-17T06:03:15.209Z,13.02
2023-02-17T06:04:17.421Z,12.05
2023-02-17T06:05:19.807Z,18.63
2023-02-17T06:06:22.035Z,15.18
2023-02-17T06:07:24.316Z,14.52
2023-02-17T06:08:26.405Z,13.40
2023-02-17T06:09:28.639Z,15.35
2023-02-17T06:10:30.889Z,10.85
2023-02-17T06:11:33.534Z,13.35
2023-02-17T06:12:35.579Z,11.70
2023-02-17T06:13:37.750Z,11.40
2023-02-17T06:14:39.893Z,12.23
2023-02-17T06:15:41.852Z,11.73
2023-02-17T06:16:43.990Z,10.45
2023-02-17T06:17:46.233Z,12.02
2023-02-17T06:18:48.430Z,12.48
2023-02-17T06:19:50.785Z,11.18
2023-02-17T06:20:56.227Z,9.13
2023-02-17T06:21:58.284Z,11.30
2023-02-17T06:23:00.401Z,15.65
2023-02-17T06:24:02.386Z,10.35
2023-02-17T06:25:05.259Z,13.38
2023-02-17T06:26:07.509Z,10.98
2023-02-17T06:27:09.828Z,14.20
2023-02-17T06:28:11.902Z,12.57
2023-02-17T06:29:13.822Z,11.63
2023-02-17T06:30:17.833Z,12.25
2023-02-17T06:31:20.066Z,10.88
2023-02-17T06:32:22.076Z,10.82
2023-02-17T06:33:24.081Z,12.93
2023-02-17T06:34:26.460Z,11.48
2023-02-17T06:35:28.650Z,10.32
2023-02-17T06:36:30.831Z,11.75
2023-02-17T06:37:32.898Z,14.57
2023-02-17T06:38:34.973Z,14.50
2023-02-17T06:39:36.960Z,11.73
2023-02-17T06:40:39.033Z,12.93
2023-02-17T06:41:40.965Z,14.32
2023-02-17T06:42:43.166Z,15.77
2023-02-17T06:43:45.077Z,9.98
2023-02-17T06:44:48.295Z,12.48
2023-02-17T06:45:51.321Z,11.95
2023-02-17T06:46:53.550Z,12.02
2023-02-17T06:47:55.485Z,16.33
2023-02-17T06:48:57.530Z,13.80
2023-02-17T06:49:59.421Z,10.20
2023-02-17T06:51:01.425Z,10.55
2023-02-17T06:52:03.486Z,13.50
2023-02-17T06:53:05.675Z,11.75
2023-02-17T06:54:07.780Z,13.65
2023-02-17T06:55:09.918Z,13.25
2023-02-17T06:56:11.931Z,14.02
2023-02-17T06:57:14.198Z,11.55
2023-02-17T06:58:16.176Z,9.50
2023-02-17T06:59:18.072Z,12.63
2023-02-17T07:00:20.898Z,11.15
2023-02-17T07:01:26.615Z,16.83
2023-02-17T07:02:28.833Z,12.38
2023-02-17T07:03:32.598Z,12.00
2023-02-17T07:04:34.512Z,11.77
2023-02-17T07:05:37.622Z,11.30
2023-02-17T07:06:39.649Z,13.00
2023-02-17T07:07:41.864Z,13.57
2023-02-17T07:08:43.792Z,12.88
2023-02-17T07:09:45.851Z,11.38
2023-02-17T07:10:47.777Z,13.57
2023-02-17T07:11:51.307Z,13.73
2023-02-17T07:12:53.453Z,11.13
2023-02-17T07:13:55.488Z,10.40
2023-02-17T07:14:57.714Z,9.75
2023-02-17T07:15:59.727Z,12.68
2023-02-17T07:17:02.546Z,13.57
2023-02-17T07:18:05.297Z,12.45
2023-02-17T07:19:07.386Z,12.55
2023-02-17T07:20:09.772Z,15.07
2023-02-17T07:21:11.944Z,11.98
2023-02-17T07:22:13.997Z,16.60
2023-02-17T07:23:15.953Z,14.70
2023-02-17T07:24:18.143Z,11.90
2023-02-17T07:25:20.200Z,11.85
2023-02-17T07:26:22.607Z,12.18
2023-02-17T07:27:24.666Z,11.77
2023-02-17T07:28:26.810Z,13.80
2023-02-17T07:29:28.827Z,12.52
2023-02-17T07:30:31.060Z,13.27
2023-02-17T07:31:33.974Z,11.32
2023-02-17T07:32:36.112Z,8.85
2023-02-17T07:33:38.604Z,12.30
2023-02-17T07:34:40.897Z,12.57
2023-02-17T07:35:46.432Z,13.25
2023-02-17T07:36:48.696Z,13.07
2023-02-17T07:37:51.863Z,12.35
2023-02-17T07:38:53.934Z,15.85
2023-02-17T07:39:57.356Z,11.90
2023-02-17T07:41:05.419Z,12.80
2023-02-17T07:42:07.588Z,13.40
2023-02-17T07:43:09.911Z,12.75
2023-02-17T07:44:12.308Z,11.88
2023-02-17T07:45:14.467Z,15.20
2023-02-17T07:46:17.615Z,15.00
2023-02-17T07:47:19.877Z,13.48
2023-02-17T07:48:21.847Z,12.25
2023-02-17T07:49:24.062Z,10.95
2023-02-17T07:50:26.013Z,12.45
2023-02-17T07:51:28.145Z,12.35
2023-02-17T07:52:30.185Z,12.75
2023-02-17T07:53:32.620Z,13.32
2023-02-17T07:54:34.662Z,15.52
2023-02-17T07:55:36.945Z,11.98
2023-02-17T07:56:39.415Z,12.60
2023-02-17T07:57:41.477Z,13.52
2023-02-17T07:58:45.196Z,11.52
2023-02-17T07:59:48.234Z,12.82
2023-02-17T08:00:50.167Z,9.82
2023-02-17T08:01:52.340Z,11.60
2023-02-17T08:02:54.313Z,12.38
2023-02-17T08:03:57.134Z,10.60
2023-02-17T08:04:59.256Z,12.18
2023-02-17T08:06:01.855Z,11.75
2023-02-17T08:07:03.855Z,13.20
2023-02-17T08:08:24.478Z,12.57
2023-02-17T08:09:45.068Z,13.95
2023-02-17T08:11:06.068Z,11.82
2023-02-17T08:12:34.033Z,11.30
2023-02-17T08:13:36.162Z,10.43
2023-02-17T08:14:38.856Z,12.95
2023-02-17T08:15:41.618Z,6.85
2023-02-17T08:16:43.734Z,9.35
2023-02-17T08:17:45.692Z,11.43
2023-02-17T08:18:47.811Z,16.63
2023-02-17T08:19:49.739Z,12.02
2023-02-17T08:20:52.620Z,11.43
2023-02-17T08:21:54.764Z,10.38
2023-02-17T08:22:56.786Z,12.45
2023-02-17T08:23:59.100Z,13.40
2023-02-17T08:25:01.132Z,11.85
2023-02-17T08:26:03.389Z,17.60
2023-02-17T08:27:05.435Z,11.88
2023-02-17T08:28:07.546Z,11.40
2023-02-17T08:29:09.585Z,13.95
2023-02-17T08:30:12.271Z,11.20
2023-02-17T08:31:20.015Z,13.55
2023-02-17T08:32:22.084Z,9.27
2023-02-17T08:33:24.398Z,11.43
2023-02-17T08:34:26.587Z,12.20
2023-02-17T08:35:28.901Z,12.05
2023-02-17T08:36:31.673Z,12.63
2023-02-17T08:37:33.823Z,12.73
2023-02-17T08:38:35.875Z,10.18
2023-02-17T08:39:38.931Z,13.38
2023-02-17T08:40:40.935Z,11.77
2023-02-17T08:41:43.797Z,11.55
2023-02-17T08:42:45.870Z,14.10
2023-02-17T08:43:49.041Z,11.20
2023-02-17T08:44:51.237Z,9.13
2023-02-17T08:45:53.604Z,12.10
2023-02-17T08:46:55.639Z,11.07
2023-02-17T08:47:59.060Z,8.10
2023-02-17T08:49:01.030Z,10.32
2023-02-17T08:50:05.463Z,12.32
2023-02-17T08:51:08.160Z,14.18
2023-02-17T08:52:10.450Z,12.40
2023-02-17T08:53:12.402Z,11.10
2023-02-17T08:54:16.203Z,15.90
2023-02-17T08:55:20.455Z,17.38
2023-02-17T08:57:26.874Z,8.35
2023-02-17T08:58:29.019Z,10.70
2023-02-17T08:59:31.049Z,13.25
2023-02-17T09:00:33.046Z,11.77
2023-02-17T09:01:35.585Z,13.48
2023-02-17T09:02:38.098Z,11.20
2023-02-17T09:03:41.862Z,10.48
2023-02-17T09:04:44.424Z,11.20
2023-02-17T09:05:46.719Z,10.23
2023-02-17T09:06:53.471Z,14.20
2023-02-17T09:07:55.415Z,11.77
2023-02-17T09:08:57.463Z,11.90
2023-02-17T09:09:59.606Z,9.25
2023-02-17T09:11:01.932Z,9.27
2023-02-17T09:12:05.121Z,13.57
2023-02-17T09:13:07.112Z,13.70
2023-02-17T09:14:09.782Z,10.63
2023-02-17T09:15:11.954Z,13.57
2023-02-17T09:16:14.223Z,13.23
2023-02-17T09:17:16.221Z,11.40
2023-02-17T09:18:18.280Z,13.18
2023-02-17T09:19:21.016Z,12.20
2023-02-17T09:20:25.103Z,12.68
2023-02-17T09:21:27.669Z,9.30
2023-02-17T09:22:32.352Z,13.05
2023-02-17T09:23:34.791Z,12.18
2023-02-17T09:24:38.889Z,10.18
2023-02-17T09:25:40.939Z,10.73
2023-02-17T09:26:42.999Z,10.60
2023-02-17T09:27:45.209Z,10.88
2023-02-17T09:28:48.027Z,13.23
2023-02-17T09:29:50.232Z,12.80
2023-02-17T09:30:52.337Z,12.40
2023-02-17T09:31:54.547Z,9.48
2023-02-17T09:32:57.158Z,9.70
2023-02-17T09:33:59.617Z,11.73
2023-02-17T09:35:03.413Z,16.73
2023-02-17T09:36:07.501Z,10.70
2023-02-17T09:37:13.951Z,13.80
2023-02-17T09:38:16.946Z,11.60
2023-02-17T09:39:19.109Z,12.10
2023-02-17T09:40:38.302Z,11.13
2023-02-17T09:41:45.460Z,13.98
2023-02-17T09:42:48.213Z,14.23
2023-02-17T09:43:54.921Z,10.63
2023-02-17T09:45:11.937Z,14.48
2023-02-17T09:47:00.570Z,11.20
2023-02-17T09:48:14.370Z,12.20
2023-02-17T09:49:21.527Z,13.30
2023-02-17T09:50:29.046Z,13.20
2023-02-17T09:51:37.832Z,12.25
2023-02-17T09:53:02.669Z,9.45
2023-02-17T09:54:21.708Z,8.38
2023-02-17T09:55:34.622Z,9.38
2023-02-17T09:56:43.227Z,10.60
2023-02-17T09:57:48.069Z,12.60
2023-02-17T09:58:56.886Z,13.80
2023-02-17T10:00:10.329Z,14.88
2023-02-17T10:01:19.759Z,14.07
2023-02-17T10:02:48.529Z,11.98
2023-02-17T10:04:03.368Z,8.95
2023-02-17T10:05:09.596Z,13.02
2023-02-17T10:06:32.907Z,10.35
2023-02-17T10:08:07.898Z,9.55
2023-02-17T10:09:35.034Z,10.45
2023-02-17T10:11:08.627Z,9.40
2023-02-17T10:12:15.912Z,13.68
2023-02-17T10:13:20.585Z,12.02
2023-02-17T10:14:40.611Z,13.07
2023-02-17T10:15:48.577Z,12.02
2023-02-17T10:17:24.785Z,10.15
2023-02-17T10:18:40.969Z,13.73
2023-02-17T10:20:01.008Z,10.82
2023-02-17T10:21:24.448Z,11.00
2023-02-17T10:22:27.312Z,15.68
2023-02-17T10:23:29.736Z,9.65
2023-02-17T10:24:31.747Z,12.88
2023-02-17T10:25:45.792Z,14.02
2023-02-17T10:26:56.896Z,11.88
2023-02-17T10:28:21.955Z,11.90
2023-02-17T10:29:45.173Z,13.25
2023-02-17T10:32:19.830Z,16.33
2023-02-17T10:33:29.644Z,12.93
2023-02-17T10:34:38.772Z,13.43
2023-02-17T10:35:54.153Z,13.45
2023-02-17T10:37:05.450Z,9.88
2023-02-17T10:38:18.120Z,14.45
2023-02-17T10:39:31.944Z,11.75
2023-02-17T10:40:34.328Z,14.02
2023-02-17T10:41:40.628Z,12.73
2023-02-17T10:42:42.941Z,13.00
2023-02-17T10:43:45.635Z,15.23
2023-02-17T10:44:51.178Z,13.90
2023-02-17T10:45:53.664Z,10.82
2023-02-17T10:46:55.700Z,11.45
2023-02-17T10:48:08.992Z,12.63
2023-02-17T10:49:37.160Z,11.80
2023-02-17T10:50:42.364Z,11.57
2023-02-17T10:51:44.464Z,13.30
2023-02-17T10:52:46.878Z,11.98
2023-02-17T10:53:53.260Z,11.18
2023-02-17T10:55:06.511Z,10.48
2023-02-17T10:56:21.040Z,10.60
2023-02-17T10:57:27.084Z,12.98
2023-02-17T10:58:38.071Z,12.10
2023-02-17T10:59:43.087Z,11.85
2023-02-17T11:00:50.114Z,13.23
2023-02-17T11:01:52.587Z,13.75
2023-02-17T11:02:54.745Z,16.83
2023-02-17T11:04:05.462Z,11.48
2023-02-17T11:05:08.330Z,12.32
2023-02-17T11:06:22.610Z,12.10
2023-02-17T11:07:42.492Z,10.15
2023-02-17T11:08:50.714Z,13.02
2023-02-17T11:09:58.172Z,11.77
2023-02-17T11:11:06.198Z,13.82
2023-02-17T11:12:14.931Z,10.52
2023-02-17T11:13:35.760Z,10.68
2023-02-17T11:14:44.016Z,10.60
2023-02-17T11:15:47.367Z,14.38
2023-02-17T11:16:54.859Z,12.63
2023-02-17T11:17:59.858Z,14.38
2023-02-17T11:19:02.714Z,10.40
2023-02-17T11:20:13.522Z,13.20
2023-02-17T11:21:15.899Z,12.07
2023-02-17T11:22:40.871Z,11.82
2023-02-17T11:23:56.621Z,11.43
2023-02-17T11:25:05.740Z,11.43
2023-02-17T11:26:17.950Z,14.27
2023-02-17T11:27:26.502Z,12.88
2023-02-17T11:28:29.053Z,13.40
2023-02-17T11:29:31.672Z,10.48
2023-02-17T11:30:36.372Z,12.30
2023-02-17T11:31:38.641Z,12.32
2023-02-17T11:32:40.741Z,13.95
2023-02-17T11:33:42.783Z,10.45
2023-02-17T11:34:44.940Z,14.68
2023-02-17T11:35:54.312Z,12.18
2023-02-17T11:37:14.340Z,13.23
2023-02-17T11:38:19.314Z,10.65
2023-02-17T11:39:22.676Z,12.27
2023-02-17T11:40:27.649Z,12.05
2023-02-17T11:41:39.730Z,12.52
2023-02-17T11:42:41.729Z,12.27
2023-02-17T11:43:55.159Z,11.80
2023-02-17T11:45:00.789Z,11.02
2023-02-17T11:46:24.485Z,12.63
2023-02-17T11:47:38.291Z,11.80
2023-02-17T11:48:43.205Z,16.45
2023-02-17T11:49:57.743Z,12.88
2023-02-17T11:51:11.982Z,12.23
2023-02-17T11:52:24.137Z,16.60
2023-02-17T11:53:41.248Z,13.93
2023-02-17T11:56:23.097Z,13.75
2023-02-17T11:58:03.273Z,16.17
2023-02-17T11:59:41.253Z,13.23
2023-02-17T12:01:24.590Z,14.20
2023-02-17T12:02:32.215Z,19.27
2023-02-17T12:04:07.698Z,15.68
2023-02-17T12:05:09.703Z,15.57
2023-02-17T12:06:30.125Z,11.27
2023-02-17T12:07:58.600Z,15.25
2023-02-17T12:09:23.657Z,11.48
2023-02-17T12:10:53.481Z,10.80
2023-02-17T12:12:14.124Z,16.58
2023-02-17T12:13:44.687Z,15.02
2023-02-17T12:15:05.038Z,14.75
2023-02-17T12:16:10.057Z,18.45
2023-02-17T12:17:43.051Z,13.18
2023-02-17T12:18:47.704Z,21.35
2023-02-17T12:20:09.269Z,17.85
2023-02-17T12:21:23.189Z,21.73
2023-02-17T12:22:25.183Z,19.10
2023-02-17T12:23:59.302Z,27.00
2023-02-17T12:25:10.200Z,19.98
2023-02-17T12:26:24.153Z,22.23
2023-02-17T12:27:32.205Z,18.13
2023-02-17T12:28:49.254Z,19.30
2023-02-17T12:30:37.750Z,17.65
2023-02-17T12:32:08.596Z,18.75
2023-02-17T12:33:28.872Z,19.58
2023-02-17T12:34:37.279Z,15.38
2023-02-17T12:35:53.584Z,17.20
2023-02-17T12:36:58.306Z,16.77
2023-02-17T12:38:04.410Z,14.43
2023-02-17T12:39:15.701Z,16.75
2023-02-17T12:40:33.219Z,16.40
2023-02-17T12:41:43.051Z,20.63
2023-02-17T12:42:56.425Z,15.95
2023-02-17T12:44:21.491Z,13.57
2023-02-17T12:45:36.907Z,13.82
2023-02-17T12:46:42.554Z,14.18
2023-02-17T12:47:50.651Z,14.23
2023-02-17T12:49:10.009Z,14.88
2023-02-17T12:50:19.654Z,17.00
2023-02-17T12:51:42.092Z,15.25
2023-02-17T12:52:49.000Z,13.70
2023-02-17T12:54:20.262Z,14.48
2023-02-17T12:55:27.482Z,12.23
2023-02-17T12:56:35.347Z,14.00
2023-02-17T12:58:00.992Z,20.20
2023-02-17T12:59:40.077Z,15.85
2023-02-17T13:00:49.750Z,19.15
2023-02-17T13:02:19.537Z,16.13
2023-02-17T13:03:21.853Z,22.38
2023-02-17T13:04:25.356Z,15.23
2023-02-17T13:05:55.220Z,16.08
2023-02-17T13:08:11.981Z,11.95
2023-02-17T13:09:32.321Z,15.80
2023-02-17T13:10:37.391Z,13.13
2023-02-17T13:11:39.554Z,15.85
2023-02-17T13:12:41.710Z,12.77
2023-02-17T13:13:43.725Z,14.18
2023-02-17T13:14:48.626Z,18.25
2023-02-17T13:16:07.662Z,14.98
2023-02-17T13:17:37.953Z,16.35
2023-02-17T13:18:46.484Z,12.43
2023-02-17T13:19:48.449Z,11.55
2023-02-17T13:20:56.219Z,14.02
2023-02-17T13:22:08.371Z,14.60
2023-02-17T13:23:13.909Z,14.13
2023-02-17T13:24:35.263Z,12.88
2023-02-17T13:25:38.381Z,9.90
2023-02-17T13:26:45.103Z,11.52
2023-02-17T13:27:47.021Z,11.55
2023-02-17T13:28:52.362Z,11.10
2023-02-17T13:30:25.752Z,15.57
2023-02-17T13:31:27.920Z,19.25
2023-02-17T13:32:33.968Z,12.57
2023-02-17T13:33:45.924Z,14.95
2023-02-17T13:35:00.578Z,16.75
2023-02-17T13:36:20.813Z,12.70
2023-02-17T13:37:40.065Z,15.25
2023-02-17T13:39:12.822Z,15.20
2023-02-17T13:40:20.468Z,13.48
2023-02-17T13:41:22.652Z,14.02
2023-02-17T13:42:38.168Z,14.77
2023-02-17T13:43:43.653Z,19.75
2023-02-17T13:44:47.364Z,16.42
2023-02-17T13:46:01.031Z,11.00
2023-02-17T13:47:06.657Z,15.27
2023-02-17T13:48:16.455Z,12.00
2023-02-17T13:49:25.052Z,19.48
2023-02-17T13:50:31.394Z,14.20
2023-02-17T13:51:34.907Z,12.50
2023-02-17T13:52:36.852Z,14.10
2023-02-17T13:53:41.181Z,15.85
2023-02-17T13:56:01.360Z,15.57
2023-02-17T13:57:03.475Z,15.00
2023-02-17T13:58:05.599Z,15.43
2023-02-17T13:59:18.394Z,14.68
2023-02-17T14:00:25.360Z,16.83
2023-02-17T14:01:28.950Z,14.70
2023-02-17T14:02:36.406Z,19.38
2023-02-17T14:03:46.904Z,15.75
2023-02-17T14:04:48.884Z,13.38
2023-02-17T14:05:56.719Z,18.10
2023-02-17T14:07:01.212Z,17.20
2023-02-17T14:08:18.855Z,19.50
2023-02-17T14:09:27.341Z,15.52
2023-02-17T14:10:29.783Z,17.23
2023-02-17T14:11:33.080Z,17.27
2023-02-17T14:12:35.598Z,13.43
2023-02-17T14:13:40.275Z,13.07
2023-02-17T14:14:42.540Z,15.10
2023-02-17T14:15:59.558Z,14.57
2023-02-17T14:19:20.142Z,15.10
2023-02-17T14:20:28.415Z,14.57
2023-02-17T14:21:30.812Z,18.10
2023-02-17T14:22:35.131Z,17.02
2023-02-17T14:25:00.474Z,10.60
2023-02-17T14:26:11.026Z,14.60
2023-02-17T14:27:14.409Z,9.93
2023-02-17T14:28:22.256Z,16.23
2023-02-17T14:29:24.435Z,16.27